sensor_id;sensor_type;location;lat;lon;timestamp;P1;durP1;ratioP1;P2;durP2;ratioP2
30472;SDS011;17263;48.160;11.452;2022-12-18T00:02:08;39.57;;;23.57;;
30472;SDS011;17263;48.160;11.452;2022-12-18T00:04:35;39.17;;;22.73;;
30472;SDS011;17263;48.160;11.452;2022-12-18T00:07:01;44.63;;;25.10;;
30472;SDS011;17263;48.160;11.452;2022-12-18T00:09:28;43.43;;;24.03;;
30472;SDS011;17263;48.160;11.452;2022-12-18T00:11:54;40.90;;;24.23;;
30472;SDS011;17263;48.160;11.452;2022-12-18T00:14:21;40.03;;;24.03;;
30472;SDS011;17263;48.160;11.452;2022-12-18T00:16:47;45.13;;;26.07;;
30472;SDS011;17263;48.160;11.452;2022-12-18T00:19:14;42.83;;;25.40;;
30472;SDS011;17263;48.160;11.452;2022-12-18T00:21:41;41.50;;;25.20;;
30472;SDS011;17263;48.160;11.452;2022-12-18T00:24:08;37.60;;;23.23;;
30472;SDS011;17263;48.160;11.452;2022-12-18T00:26:35;41.03;;;24.07;;
30472;SDS011;17263;48.160;11.452;2022-12-18T00:29:04;45.27;;;25.40;;
30472;SDS011;17263;48.160;11.452;2022-12-18T00:31:33;43.97;;;25.03;;
30472;SDS011;17263;48.160;11.452;2022-12-18T00:34:00;41.83;;;23.80;;
30472;SDS011;17263;48.160;11.452;2022-12-18T00:36:30;40.00;;;23.27;;
30472;SDS011;17263;48.160;11.452;2022-12-18T00:38:59;40.47;;;23.13;;
30472;SDS011;17263;48.160;11.452;2022-12-18T00:41:27;40.70;;;23.03;;
30472;SDS011;17263;48.160;11.452;2022-12-18T00:44:13;43.93;;;23.67;;
30472;SDS011;17263;48.160;11.452;2022-12-18T00:46:41;41.03;;;23.83;;
30472;SDS011;17263;48.160;11.452;2022-12-18T00:49:07;40.20;;;23.20;;
30472;SDS011;17263;48.160;11.452;2022-12-18T00:51:34;43.83;;;23.13;;
30472;SDS011;17263;48.160;11.452;2022-12-18T00:54:00;49.13;;;25.43;;
30472;SDS011;17263;48.160;11.452;2022-12-18T00:56:26;47.70;;;26.53;;
30472;SDS011;17263;48.160;11.452;2022-12-18T00:58:52;53.13;;;26.90;;
30472;SDS011;17263;48.160;11.452;2022-12-18T01:01:18;48.13;;;26.10;;
30472;SDS011;17263;48.160;11.452;2022-12-18T01:03:45;52.80;;;27.20;;
30472;SDS011;17263;48.160;11.452;2022-12-18T01:06:12;47.53;;;25.70;;
30472;SDS011;17263;48.160;11.452;2022-12-18T01:08:39;56.93;;;27.23;;
30472;SDS011;17263;48.160;11.452;2022-12-18T01:11:09;51.53;;;27.27;;
30472;SDS011;17263;48.160;11.452;2022-12-18T01:13:40;51.73;;;28.17;;
30472;SDS011;17263;48.160;11.452;2022-12-18T01:16:06;51.53;;;26.87;;
30472;SDS011;17263;48.160;11.452;2022-12-18T01:18:32;48.27;;;25.83;;
30472;SDS011;17263;48.160;11.452;2022-12-18T01:20:58;52.97;;;26.30;;
30472;SDS011;17263;48.160;11.452;2022-12-18T01:23:24;51.60;;;26.43;;
30472;SDS011;17263;48.160;11.452;2022-12-18T01:25:50;49.93;;;26.43;;
30472;SDS011;17263;48.160;11.452;2022-12-18T01:28:16;54.27;;;26.70;;
30472;SDS011;17263;48.160;11.452;2022-12-18T01:30:42;49.37;;;25.93;;
30472;SDS011;17263;48.160;11.452;2022-12-18T01:33:08;52.73;;;25.53;;
30472;SDS011;17263;48.160;11.452;2022-12-18T01:35:39;49.90;;;27.00;;
30472;SDS011;17263;48.160;11.452;2022-12-18T01:38:07;53.07;;;25.93;;
30472;SDS011;17263;48.160;11.452;2022-12-18T01:40:33;50.27;;;25.30;;
30472;SDS011;17263;48.160;11.452;2022-12-18T01:42:59;48.67;;;25.30;;
30472;SDS011;17263;48.160;11.452;2022-12-18T01:45:29;44.90;;;24.30;;
30472;SDS011;17263;48.160;11.452;2022-12-18T01:48:14;57.30;;;26.30;;
30472;SDS011;17263;48.160;11.452;2022-12-18T01:50:41;53.53;;;26.33;;
30472;SDS011;17263;48.160;11.452;2022-12-18T01:53:13;50.30;;;25.10;;
30472;SDS011;17263;48.160;11.452;2022-12-18T01:55:45;48.90;;;25.60;;
30472;SDS011;17263;48.160;11.452;2022-12-18T01:58:13;48.63;;;25.40;;
30472;SDS011;17263;48.160;11.452;2022-12-18T02:00:40;50.67;;;25.77;;
30472;SDS011;17263;48.160;11.452;2022-12-18T02:03:07;48.90;;;24.40;;
30472;SDS011;17263;48.160;11.452;2022-12-18T02:08:10;45.83;;;24.13;;
30472;SDS011;17263;48.160;11.452;2022-12-18T02:13:41;43.13;;;23.57;;
30472;SDS011;17263;48.160;11.452;2022-12-18T02:16:39;50.93;;;24.77;;
30472;SDS011;17263;48.160;11.452;2022-12-18T02:22:06;43.70;;;24.00;;
30472;SDS011;17263;48.160;11.452;2022-12-18T02:25:13;43.73;;;22.30;;
30472;SDS011;17263;48.160;11.452;2022-12-18T02:27:44;42.00;;;22.43;;
30472;SDS011;17263;48.160;11.452;2022-12-18T02:30:12;45.07;;;22.87;;
30472;SDS011;17263;48.160;11.452;2022-12-18T02:32:40;38.40;;;20.80;;
30472;SDS011;17263;48.160;11.452;2022-12-18T02:35:12;43.87;;;22.37;;
30472;SDS011;17263;48.160;11.452;2022-12-18T02:37:42;41.57;;;22.43;;
30472;SDS011;17263;48.160;11.452;2022-12-18T02:40:10;40.77;;;21.53;;
30472;SDS011;17263;48.160;11.452;2022-12-18T02:42:38;42.93;;;24.20;;
30472;SDS011;17263;48.160;11.452;2022-12-18T02:45:04;45.73;;;23.13;;
30472;SDS011;17263;48.160;11.452;2022-12-18T02:47:32;44.90;;;23.90;;
30472;SDS011;17263;48.160;11.452;2022-12-18T02:50:23;42.53;;;23.27;;
30472;SDS011;17263;48.160;11.452;2022-12-18T02:55:28;49.73;;;25.43;;
30472;SDS011;17263;48.160;11.452;2022-12-18T03:01:29;48.43;;;23.97;;
30472;SDS011;17263;48.160;11.452;2022-12-18T03:04:04;47.63;;;24.83;;
30472;SDS011;17263;48.160;11.452;2022-12-18T03:06:41;49.77;;;24.33;;
30472;SDS011;17263;48.160;11.452;2022-12-18T03:09:14;48.50;;;24.90;;
30472;SDS011;17263;48.160;11.452;2022-12-18T03:11:45;48.93;;;25.20;;
30472;SDS011;17263;48.160;11.452;2022-12-18T03:14:36;44.97;;;23.53;;
30472;SDS011;17263;48.160;11.452;2022-12-18T03:17:05;45.63;;;25.10;;
30472;SDS011;17263;48.160;11.452;2022-12-18T03:19:38;48.53;;;25.03;;
30472;SDS011;17263;48.160;11.452;2022-12-18T03:22:06;49.33;;;25.67;;
30472;SDS011;17263;48.160;11.452;2022-12-18T03:24:35;48.43;;;25.73;;
30472;SDS011;17263;48.160;11.452;2022-12-18T03:27:05;49.97;;;25.93;;
30472;SDS011;17263;48.160;11.452;2022-12-18T03:29:35;48.67;;;25.60;;
30472;SDS011;17263;48.160;11.452;2022-12-18T03:32:06;50.10;;;25.63;;
30472;SDS011;17263;48.160;11.452;2022-12-18T03:34:37;46.10;;;24.60;;
30472;SDS011;17263;48.160;11.452;2022-12-18T03:37:05;46.57;;;24.50;;
30472;SDS011;17263;48.160;11.452;2022-12-18T03:39:32;49.90;;;25.60;;
30472;SDS011;17263;48.160;11.452;2022-12-18T03:42:01;48.93;;;25.47;;
30472;SDS011;17263;48.160;11.452;2022-12-18T03:44:37;47.60;;;25.43;;
30472;SDS011;17263;48.160;11.452;2022-12-18T03:47:14;53.70;;;25.83;;
30472;SDS011;17263;48.160;11.452;2022-12-18T03:49:50;42.77;;;23.50;;
30472;SDS011;17263;48.160;11.452;2022-12-18T03:52:49;48.80;;;23.77;;
30472;SDS011;17263;48.160;11.452;2022-12-18T03:55:25;49.57;;;25.67;;
30472;SDS011;17263;48.160;11.452;2022-12-18T03:57:54;49.03;;;25.10;;
30472;SDS011;17263;48.160;11.452;2022-12-18T04:00:21;47.67;;;25.53;;
30472;SDS011;17263;48.160;11.452;2022-12-18T04:02:50;48.50;;;24.87;;
30472;SDS011;17263;48.160;11.452;2022-12-18T04:05:20;49.17;;;26.97;;
30472;SDS011;17263;48.160;11.452;2022-12-18T04:07:48;48.00;;;25.57;;
30472;SDS011;17263;48.160;11.452;2022-12-18T04:10:16;52.37;;;25.87;;
30472;SDS011;17263;48.160;11.452;2022-12-18T04:12:42;46.63;;;25.97;;
30472;SDS011;17263;48.160;11.452;2022-12-18T04:15:09;49.67;;;25.97;;
30472;SDS011;17263;48.160;11.452;2022-12-18T04:17:37;51.87;;;26.33;;
30472;SDS011;17263;48.160;11.452;2022-12-18T04:20:04;50.43;;;26.90;;
30472;SDS011;17263;48.160;11.452;2022-12-18T04:22:30;51.57;;;26.77;;
30472;SDS011;17263;48.160;11.452;2022-12-18T04:24:56;49.93;;;26.90;;
30472;SDS011;17263;48.160;11.452;2022-12-18T04:27:22;47.40;;;25.67;;
30472;SDS011;17263;48.160;11.452;2022-12-18T04:29:48;51.53;;;27.50;;
30472;SDS011;17263;48.160;11.452;2022-12-18T04:32:14;50.17;;;26.37;;
30472;SDS011;17263;48.160;11.452;2022-12-18T04:34:40;47.10;;;24.23;;
30472;SDS011;17263;48.160;11.452;2022-12-18T04:37:06;46.33;;;25.23;;
30472;SDS011;17263;48.160;11.452;2022-12-18T04:39:33;51.50;;;26.70;;
30472;SDS011;17263;48.160;11.452;2022-12-18T04:41:59;44.20;;;24.33;;
30472;SDS011;17263;48.160;11.452;2022-12-18T04:44:25;45.63;;;25.00;;
30472;SDS011;17263;48.160;11.452;2022-12-18T04:46:51;53.47;;;25.70;;
30472;SDS011;17263;48.160;11.452;2022-12-18T04:49:17;50.73;;;28.60;;
30472;SDS011;17263;48.160;11.452;2022-12-18T04:51:43;50.93;;;26.87;;
30472;SDS011;17263;48.160;11.452;2022-12-18T04:54:09;52.70;;;28.67;;
30472;SDS011;17263;48.160;11.452;2022-12-18T04:56:35;51.10;;;26.77;;
30472;SDS011;17263;48.160;11.452;2022-12-18T04:59:01;48.40;;;25.70;;
30472;SDS011;17263;48.160;11.452;2022-12-18T05:01:27;44.40;;;25.13;;
30472;SDS011;17263;48.160;11.452;2022-12-18T05:03:53;48.60;;;24.83;;
30472;SDS011;17263;48.160;11.452;2022-12-18T05:06:19;51.37;;;27.33;;
30472;SDS011;17263;48.160;11.452;2022-12-18T05:08:45;50.07;;;26.53;;
30472;SDS011;17263;48.160;11.452;2022-12-18T05:11:12;48.03;;;25.60;;
30472;SDS011;17263;48.160;11.452;2022-12-18T05:13:41;47.97;;;24.60;;
30472;SDS011;17263;48.160;11.452;2022-12-18T05:16:09;44.80;;;25.20;;
30472;SDS011;17263;48.160;11.452;2022-12-18T05:18:36;45.43;;;23.53;;
30472;SDS011;17263;48.160;11.452;2022-12-18T05:21:02;47.30;;;24.63;;
30472;SDS011;17263;48.160;11.452;2022-12-18T05:23:29;46.90;;;26.07;;
30472;SDS011;17263;48.160;11.452;2022-12-18T05:25:56;44.57;;;24.03;;
30472;SDS011;17263;48.160;11.452;2022-12-18T05:28:24;47.07;;;25.10;;
30472;SDS011;17263;48.160;11.452;2022-12-18T05:30:53;46.37;;;25.60;;
30472;SDS011;17263;48.160;11.452;2022-12-18T05:33:21;42.17;;;23.20;;
30472;SDS011;17263;48.160;11.452;2022-12-18T05:35:54;45.30;;;23.63;;
30472;SDS011;17263;48.160;11.452;2022-12-18T05:38:22;46.87;;;24.60;;
30472;SDS011;17263;48.160;11.452;2022-12-18T05:40:50;43.03;;;24.27;;
30472;SDS011;17263;48.160;11.452;2022-12-18T05:43:17;42.27;;;23.07;;
30472;SDS011;17263;48.160;11.452;2022-12-18T05:45:44;41.33;;;23.07;;
30472;SDS011;17263;48.160;11.452;2022-12-18T05:48:11;46.60;;;24.07;;
30472;SDS011;17263;48.160;11.452;2022-12-18T05:50:37;48.10;;;25.50;;
30472;SDS011;17263;48.160;11.452;2022-12-18T05:53:04;44.80;;;24.27;;
30472;SDS011;17263;48.160;11.452;2022-12-18T05:55:38;43.63;;;22.87;;
30472;SDS011;17263;48.160;11.452;2022-12-18T05:58:06;45.03;;;23.57;;
30472;SDS011;17263;48.160;11.452;2022-12-18T06:00:33;42.93;;;23.70;;
30472;SDS011;17263;48.160;11.452;2022-12-18T06:03:00;41.60;;;23.50;;
30472;SDS011;17263;48.160;11.452;2022-12-18T06:05:27;40.47;;;23.93;;
30472;SDS011;17263;48.160;11.452;2022-12-18T06:07:53;37.37;;;21.87;;
30472;SDS011;17263;48.160;11.452;2022-12-18T06:10:19;35.27;;;21.50;;
30472;SDS011;17263;48.160;11.452;2022-12-18T06:12:45;42.23;;;22.20;;
30472;SDS011;17263;48.160;11.452;2022-12-18T06:15:11;35.47;;;22.13;;
30472;SDS011;17263;48.160;11.452;2022-12-18T06:17:37;37.07;;;21.53;;
30472;SDS011;17263;48.160;11.452;2022-12-18T06:20:04;40.00;;;22.50;;
30472;SDS011;17263;48.160;11.452;2022-12-18T06:22:31;40.47;;;23.70;;
30472;SDS011;17263;48.160;11.452;2022-12-18T06:24:57;41.63;;;22.90;;
30472;SDS011;17263;48.160;11.452;2022-12-18T06:27:24;42.67;;;22.87;;
30472;SDS011;17263;48.160;11.452;2022-12-18T06:29:50;38.87;;;21.73;;
30472;SDS011;17263;48.160;11.452;2022-12-18T06:32:16;32.87;;;19.73;;
30472;SDS011;17263;48.160;11.452;2022-12-18T06:34:42;35.97;;;21.30;;
30472;SDS011;17263;48.160;11.452;2022-12-18T06:37:09;34.27;;;20.73;;
30472;SDS011;17263;48.160;11.452;2022-12-18T06:39:35;32.43;;;19.77;;
30472;SDS011;17263;48.160;11.452;2022-12-18T06:42:01;38.17;;;21.40;;
30472;SDS011;17263;48.160;11.452;2022-12-18T06:44:27;34.23;;;19.53;;
30472;SDS011;17263;48.160;11.452;2022-12-18T06:46:53;34.63;;;20.63;;
30472;SDS011;17263;48.160;11.452;2022-12-18T06:49:19;36.20;;;21.90;;
30472;SDS011;17263;48.160;11.452;2022-12-18T06:51:45;38.87;;;22.90;;
30472;SDS011;17263;48.160;11.452;2022-12-18T06:54:11;43.43;;;22.23;;
30472;SDS011;17263;48.160;11.452;2022-12-18T06:56:37;36.90;;;21.20;;
30472;SDS011;17263;48.160;11.452;2022-12-18T06:59:04;37.67;;;21.23;;
30472;SDS011;17263;48.160;11.452;2022-12-18T07:01:30;38.73;;;21.57;;
30472;SDS011;17263;48.160;11.452;2022-12-18T07:03:56;39.23;;;21.13;;
30472;SDS011;17263;48.160;11.452;2022-12-18T07:06:23;36.27;;;21.30;;
30472;SDS011;17263;48.160;11.452;2022-12-18T07:08:51;39.77;;;20.83;;
30472;SDS011;17263;48.160;11.452;2022-12-18T07:11:18;35.73;;;20.33;;
30472;SDS011;17263;48.160;11.452;2022-12-18T07:13:44;40.20;;;22.13;;
30472;SDS011;17263;48.160;11.452;2022-12-18T07:16:12;38.30;;;20.67;;
30472;SDS011;17263;48.160;11.452;2022-12-18T07:18:40;35.80;;;20.57;;
30472;SDS011;17263;48.160;11.452;2022-12-18T07:21:07;37.20;;;21.60;;
30472;SDS011;17263;48.160;11.452;2022-12-18T07:23:35;41.10;;;23.33;;
30472;SDS011;17263;48.160;11.452;2022-12-18T07:26:02;40.30;;;22.60;;
30472;SDS011;17263;48.160;11.452;2022-12-18T07:28:33;43.70;;;22.63;;
30472;SDS011;17263;48.160;11.452;2022-12-18T07:31:03;41.33;;;21.53;;
30472;SDS011;17263;48.160;11.452;2022-12-18T07:33:31;40.63;;;21.43;;
30472;SDS011;17263;48.160;11.452;2022-12-18T07:36:01;41.07;;;22.07;;
30472;SDS011;17263;48.160;11.452;2022-12-18T07:38:31;41.83;;;21.40;;
30472;SDS011;17263;48.160;11.452;2022-12-18T07:41:04;42.00;;;22.97;;
30472;SDS011;17263;48.160;11.452;2022-12-18T07:43:35;36.10;;;21.40;;
30472;SDS011;17263;48.160;11.452;2022-12-18T07:46:01;36.70;;;20.77;;
30472;SDS011;17263;48.160;11.452;2022-12-18T07:48:28;38.77;;;20.93;;
30472;SDS011;17263;48.160;11.452;2022-12-18T07:50:58;41.63;;;22.27;;
30472;SDS011;17263;48.160;11.452;2022-12-18T07:53:25;36.93;;;21.17;;
30472;SDS011;17263;48.160;11.452;2022-12-18T07:55:58;37.20;;;20.27;;
30472;SDS011;17263;48.160;11.452;2022-12-18T07:58:25;37.43;;;21.30;;
30472;SDS011;17263;48.160;11.452;2022-12-18T08:00:51;40.00;;;21.73;;
30472;SDS011;17263;48.160;11.452;2022-12-18T08:03:18;38.90;;;21.60;;
30472;SDS011;17263;48.160;11.452;2022-12-18T08:05:45;38.87;;;20.93;;
30472;SDS011;17263;48.160;11.452;2022-12-18T08:08:11;36.53;;;20.70;;
30472;SDS011;17263;48.160;11.452;2022-12-18T08:10:37;40.50;;;20.90;;
30472;SDS011;17263;48.160;11.452;2022-12-18T08:13:03;40.47;;;20.97;;
30472;SDS011;17263;48.160;11.452;2022-12-18T08:15:29;37.83;;;21.20;;
30472;SDS011;17263;48.160;11.452;2022-12-18T08:17:56;41.40;;;21.70;;
30472;SDS011;17263;48.160;11.452;2022-12-18T08:20:22;37.90;;;20.67;;
30472;SDS011;17263;48.160;11.452;2022-12-18T08:22:48;36.90;;;20.80;;
30472;SDS011;17263;48.160;11.452;2022-12-18T08:25:14;33.53;;;19.90;;
30472;SDS011;17263;48.160;11.452;2022-12-18T08:27:40;35.87;;;21.33;;
30472;SDS011;17263;48.160;11.452;2022-12-18T08:30:07;38.27;;;21.03;;
30472;SDS011;17263;48.160;11.452;2022-12-18T08:32:33;33.37;;;20.10;;
30472;SDS011;17263;48.160;11.452;2022-12-18T08:34:59;34.50;;;20.03;;
30472;SDS011;17263;48.160;11.452;2022-12-18T08:37:25;33.30;;;21.37;;
30472;SDS011;17263;48.160;11.452;2022-12-18T08:39:51;35.83;;;21.03;;
30472;SDS011;17263;48.160;11.452;2022-12-18T08:42:17;39.20;;;21.43;;
30472;SDS011;17263;48.160;11.452;2022-12-18T08:45:02;35.50;;;20.77;;
30472;SDS011;17263;48.160;11.452;2022-12-18T08:47:29;35.13;;;21.13;;
30472;SDS011;17263;48.160;11.452;2022-12-18T08:49:55;38.63;;;21.10;;
30472;SDS011;17263;48.160;11.452;2022-12-18T08:52:21;33.43;;;19.60;;
30472;SDS011;17263;48.160;11.452;2022-12-18T08:54:47;36.00;;;19.53;;
30472;SDS011;17263;48.160;11.452;2022-12-18T08:57:13;33.97;;;19.93;;
30472;SDS011;17263;48.160;11.452;2022-12-18T08:59:39;34.37;;;20.77;;
30472;SDS011;17263;48.160;11.452;2022-12-18T09:02:05;38.13;;;20.20;;
30472;SDS011;17263;48.160;11.452;2022-12-18T09:04:31;38.47;;;20.90;;
30472;SDS011;17263;48.160;11.452;2022-12-18T09:06:57;33.90;;;19.50;;
30472;SDS011;17263;48.160;11.452;2022-12-18T09:09:23;31.87;;;18.77;;
30472;SDS011;17263;48.160;11.452;2022-12-18T09:11:49;34.43;;;19.87;;
30472;SDS011;17263;48.160;11.452;2022-12-18T09:14:15;37.60;;;20.30;;
30472;SDS011;17263;48.160;11.452;2022-12-18T09:16:41;33.77;;;19.57;;
30472;SDS011;17263;48.160;11.452;2022-12-18T09:19:08;31.60;;;18.67;;
30472;SDS011;17263;48.160;11.452;2022-12-18T09:21:35;33.83;;;18.83;;
30472;SDS011;17263;48.160;11.452;2022-12-18T09:24:03;32.20;;;18.90;;
30472;SDS011;17263;48.160;11.452;2022-12-18T09:26:30;34.23;;;19.07;;
30472;SDS011;17263;48.160;11.452;2022-12-18T09:28:56;34.67;;;19.10;;
30472;SDS011;17263;48.160;11.452;2022-12-18T09:31:22;31.87;;;18.53;;
30472;SDS011;17263;48.160;11.452;2022-12-18T09:33:50;32.13;;;19.20;;
30472;SDS011;17263;48.160;11.452;2022-12-18T09:36:16;31.90;;;18.80;;
30472;SDS011;17263;48.160;11.452;2022-12-18T09:38:43;34.27;;;19.37;;
30472;SDS011;17263;48.160;11.452;2022-12-18T09:41:33;30.03;;;18.13;;
30472;SDS011;17263;48.160;11.452;2022-12-18T09:44:11;30.13;;;17.93;;
30472;SDS011;17263;48.160;11.452;2022-12-18T09:49:47;35.27;;;19.57;;
30472;SDS011;17263;48.160;11.452;2022-12-18T09:52:19;31.07;;;17.97;;
30472;SDS011;17263;48.160;11.452;2022-12-18T09:57:39;28.00;;;17.07;;
30472;SDS011;17263;48.160;11.452;2022-12-18T10:02:39;29.23;;;17.60;;
30472;SDS011;17263;48.160;11.452;2022-12-18T10:13:09;30.27;;;17.57;;
30472;SDS011;17263;48.160;11.452;2022-12-18T10:21:24;29.67;;;17.50;;
30472;SDS011;17263;48.160;11.452;2022-12-18T10:24:17;30.67;;;17.77;;
30472;SDS011;17263;48.160;11.452;2022-12-18T10:27:12;30.37;;;17.40;;
30472;SDS011;17263;48.160;11.452;2022-12-18T10:29:41;28.47;;;16.23;;
30472;SDS011;17263;48.160;11.452;2022-12-18T10:32:19;32.20;;;18.93;;
30472;SDS011;17263;48.160;11.452;2022-12-18T10:34:47;34.70;;;19.47;;
30472;SDS011;17263;48.160;11.452;2022-12-18T10:37:18;28.93;;;18.43;;
30472;SDS011;17263;48.160;11.452;2022-12-18T10:39:47;30.90;;;18.13;;
30472;SDS011;17263;48.160;11.452;2022-12-18T10:42:35;36.73;;;20.30;;
30472;SDS011;17263;48.160;11.452;2022-12-18T10:45:08;32.07;;;18.60;;
30472;SDS011;17263;48.160;11.452;2022-12-18T10:47:47;31.90;;;18.57;;
30472;SDS011;17263;48.160;11.452;2022-12-18T10:50:28;30.07;;;18.77;;
30472;SDS011;17263;48.160;11.452;2022-12-18T10:53:01;31.50;;;17.67;;
30472;SDS011;17263;48.160;11.452;2022-12-18T10:55:34;32.13;;;18.87;;
30472;SDS011;17263;48.160;11.452;2022-12-18T11:01:23;31.70;;;18.77;;
30472;SDS011;17263;48.160;11.452;2022-12-18T11:06:21;31.93;;;19.00;;
30472;SDS011;17263;48.160;11.452;2022-12-18T11:09:03;33.90;;;17.73;;
30472;SDS011;17263;48.160;11.452;2022-12-18T11:11:31;34.60;;;19.57;;
30472;SDS011;17263;48.160;11.452;2022-12-18T11:14:01;32.40;;;19.23;;
30472;SDS011;17263;48.160;11.452;2022-12-18T11:16:31;35.23;;;19.63;;
30472;SDS011;17263;48.160;11.452;2022-12-18T11:19:19;33.73;;;19.77;;
30472;SDS011;17263;48.160;11.452;2022-12-18T11:22:02;32.73;;;19.00;;
30472;SDS011;17263;48.160;11.452;2022-12-18T11:24:49;31.33;;;18.97;;
30472;SDS011;17263;48.160;11.452;2022-12-18T11:27:18;36.23;;;20.37;;
30472;SDS011;17263;48.160;11.452;2022-12-18T11:29:44;30.10;;;18.50;;
30472;SDS011;17263;48.160;11.452;2022-12-18T11:32:31;29.73;;;18.43;;
30472;SDS011;17263;48.160;11.452;2022-12-18T11:35:21;32.63;;;19.07;;
30472;SDS011;17263;48.160;11.452;2022-12-18T11:38:16;31.17;;;18.03;;
30472;SDS011;17263;48.160;11.452;2022-12-18T11:44:14;28.20;;;17.53;;
30472;SDS011;17263;48.160;11.452;2022-12-18T11:46:47;29.27;;;18.07;;
30472;SDS011;17263;48.160;11.452;2022-12-18T11:49:22;33.00;;;20.17;;
30472;SDS011;17263;48.160;11.452;2022-12-18T11:52:03;29.10;;;18.37;;
30472;SDS011;17263;48.160;11.452;2022-12-18T11:54:42;29.53;;;18.23;;
30472;SDS011;17263;48.160;11.452;2022-12-18T12:13:07;28.30;;;17.80;;
30472;SDS011;17263;48.160;11.452;2022-12-18T12:21:32;31.63;;;19.33;;
30472;SDS011;17263;48.160;11.452;2022-12-18T12:24:25;32.53;;;19.30;;
30472;SDS011;17263;48.160;11.452;2022-12-18T12:38:19;31.13;;;18.37;;
30472;SDS011;17263;48.160;11.452;2022-12-18T12:41:03;30.10;;;18.40;;
30472;SDS011;17263;48.160;11.452;2022-12-18T12:44:01;33.23;;;19.17;;
30472;SDS011;17263;48.160;11.452;2022-12-18T12:46:36;27.83;;;17.83;;
30472;SDS011;17263;48.160;11.452;2022-12-18T12:49:15;31.50;;;17.30;;
30472;SDS011;17263;48.160;11.452;2022-12-18T12:51:48;30.60;;;17.67;;
30472;SDS011;17263;48.160;11.452;2022-12-18T12:54:21;30.27;;;18.13;;
30472;SDS011;17263;48.160;11.452;2022-12-18T12:56:53;31.37;;;18.50;;
30472;SDS011;17263;48.160;11.452;2022-12-18T12:59:47;31.80;;;18.23;;
30472;SDS011;17263;48.160;11.452;2022-12-18T13:02:22;29.87;;;17.63;;
30472;SDS011;17263;48.160;11.452;2022-12-18T13:05:16;32.20;;;18.40;;
30472;SDS011;17263;48.160;11.452;2022-12-18T13:08:12;29.70;;;17.97;;
30472;SDS011;17263;48.160;11.452;2022-12-18T13:10:49;28.63;;;17.00;;
30472;SDS011;17263;48.160;11.452;2022-12-18T13:13:52;29.70;;;17.60;;
30472;SDS011;17263;48.160;11.452;2022-12-18T13:16:23;31.13;;;18.23;;
30472;SDS011;17263;48.160;11.452;2022-12-18T13:18:54;29.50;;;17.20;;
30472;SDS011;17263;48.160;11.452;2022-12-18T13:21:25;28.20;;;17.33;;
30472;SDS011;17263;48.160;11.452;2022-12-18T13:23:54;33.33;;;18.57;;
30472;SDS011;17263;48.160;11.452;2022-12-18T13:26:28;32.30;;;19.63;;
30472;SDS011;17263;48.160;11.452;2022-12-18T13:28:57;29.53;;;18.23;;
30472;SDS011;17263;48.160;11.452;2022-12-18T13:34:16;34.83;;;18.13;;
30472;SDS011;17263;48.160;11.452;2022-12-18T13:36:42;30.97;;;17.63;;
30472;SDS011;17263;48.160;11.452;2022-12-18T13:39:20;30.50;;;18.13;;
30472;SDS011;17263;48.160;11.452;2022-12-18T13:41:48;29.13;;;17.70;;
30472;SDS011;17263;48.160;11.452;2022-12-18T13:44:28;28.17;;;17.63;;
30472;SDS011;17263;48.160;11.452;2022-12-18T13:46:58;29.63;;;16.87;;
30472;SDS011;17263;48.160;11.452;2022-12-18T13:49:30;31.93;;;18.57;;
30472;SDS011;17263;48.160;11.452;2022-12-18T13:52:24;30.07;;;18.07;;
30472;SDS011;17263;48.160;11.452;2022-12-18T13:54:54;32.10;;;18.83;;
30472;SDS011;17263;48.160;11.452;2022-12-18T13:59:55;30.00;;;16.77;;
30472;SDS011;17263;48.160;11.452;2022-12-18T14:02:23;28.03;;;15.90;;
30472;SDS011;17263;48.160;11.452;2022-12-18T14:04:51;31.83;;;18.57;;
30472;SDS011;17263;48.160;11.452;2022-12-18T14:07:19;30.07;;;17.97;;
30472;SDS011;17263;48.160;11.452;2022-12-18T14:09:59;26.17;;;16.60;;
30472;SDS011;17263;48.160;11.452;2022-12-18T14:12:27;30.93;;;16.73;;
30472;SDS011;17263;48.160;11.452;2022-12-18T14:15:20;30.57;;;17.83;;
30472;SDS011;17263;48.160;11.452;2022-12-18T14:17:51;26.90;;;16.70;;
30472;SDS011;17263;48.160;11.452;2022-12-18T14:20:19;30.97;;;18.23;;
30472;SDS011;17263;48.160;11.452;2022-12-18T14:22:47;33.27;;;18.53;;
30472;SDS011;17263;48.160;11.452;2022-12-18T14:27:47;29.73;;;17.07;;
30472;SDS011;17263;48.160;11.452;2022-12-18T14:30:27;30.00;;;17.07;;
30472;SDS011;17263;48.160;11.452;2022-12-18T14:33:15;31.10;;;17.63;;
30472;SDS011;17263;48.160;11.452;2022-12-18T14:38:37;30.60;;;18.10;;
30472;SDS011;17263;48.160;11.452;2022-12-18T14:41:12;29.87;;;17.97;;
30472;SDS011;17263;48.160;11.452;2022-12-18T14:43:40;31.50;;;18.07;;
30472;SDS011;17263;48.160;11.452;2022-12-18T14:49:18;33.87;;;18.87;;
30472;SDS011;17263;48.160;11.452;2022-12-18T14:51:55;31.37;;;17.67;;
30472;SDS011;17263;48.160;11.452;2022-12-18T14:54:25;30.13;;;18.63;;
30472;SDS011;17263;48.160;11.452;2022-12-18T14:59:41;29.50;;;17.60;;
30472;SDS011;17263;48.160;11.452;2022-12-18T15:02:14;30.93;;;17.97;;
30472;SDS011;17263;48.160;11.452;2022-12-18T15:04:43;31.50;;;19.00;;
30472;SDS011;17263;48.160;11.452;2022-12-18T15:10:07;34.03;;;19.63;;
30472;SDS011;17263;48.160;11.452;2022-12-18T15:12:36;35.53;;;18.33;;
30472;SDS011;17263;48.160;11.452;2022-12-18T15:18:05;31.27;;;18.10;;
30472;SDS011;17263;48.160;11.452;2022-12-18T15:23:17;31.30;;;17.87;;
30472;SDS011;17263;48.160;11.452;2022-12-18T15:26:03;33.43;;;18.80;;
30472;SDS011;17263;48.160;11.452;2022-12-18T15:31:32;34.73;;;19.00;;
30472;SDS011;17263;48.160;11.452;2022-12-18T15:36:36;35.23;;;19.43;;
30472;SDS011;17263;48.160;11.452;2022-12-18T15:39:02;37.67;;;20.17;;
30472;SDS011;17263;48.160;11.452;2022-12-18T15:41:31;32.07;;;19.93;;
30472;SDS011;17263;48.160;11.452;2022-12-18T15:44:30;35.43;;;18.07;;
30472;SDS011;17263;48.160;11.452;2022-12-18T15:46:59;32.30;;;18.80;;
30472;SDS011;17263;48.160;11.452;2022-12-18T15:49:25;30.47;;;18.97;;
30472;SDS011;17263;48.160;11.452;2022-12-18T15:51:52;32.40;;;19.40;;
30472;SDS011;17263;48.160;11.452;2022-12-18T15:54:20;35.40;;;20.17;;
30472;SDS011;17263;48.160;11.452;2022-12-18T15:57:07;34.23;;;19.17;;
30472;SDS011;17263;48.160;11.452;2022-12-18T15:59:50;39.13;;;20.33;;
30472;SDS011;17263;48.160;11.452;2022-12-18T16:02:19;37.17;;;20.37;;
30472;SDS011;17263;48.160;11.452;2022-12-18T16:04:48;35.20;;;19.80;;
30472;SDS011;17263;48.160;11.452;2022-12-18T16:07:15;36.63;;;19.30;;
30472;SDS011;17263;48.160;11.452;2022-12-18T16:09:41;34.00;;;19.83;;
30472;SDS011;17263;48.160;11.452;2022-12-18T16:12:15;34.30;;;19.40;;
30472;SDS011;17263;48.160;11.452;2022-12-18T16:14:43;34.30;;;19.67;;
30472;SDS011;17263;48.160;11.452;2022-12-18T16:17:10;34.33;;;20.33;;
30472;SDS011;17263;48.160;11.452;2022-12-18T16:19:37;37.43;;;21.50;;